createdAt,value
2022-10-07T00:00:14.131Z,3.88
2022-10-07T00:05:16.663Z,3.92
2022-10-07T00:10:17.580Z,4.32
2022-10-07T00:15:18.712Z,3.95
2022-10-07T00:20:20.928Z,3.45
2022-10-07T00:25:22.408Z,4.07
2022-10-07T00:30:23.299Z,4.00
2022-10-07T00:35:25.478Z,3.60
2022-10-07T00:40:26.335Z,3.28
2022-10-07T00:45:27.152Z,3.95
2022-10-07T00:50:30.465Z,3.55
2022-10-07T00:55:33.495Z,4.43
2022-10-07T01:00:34.398Z,3.60
2022-10-07T01:05:36.571Z,3.60
2022-10-07T01:10:46.434Z,3.08
2022-10-07T01:15:57.443Z,4.05
2022-10-07T01:21:05.213Z,3.67
2022-10-07T01:26:37.850Z,4.00
2022-10-07T01:31:45.077Z,4.18
2022-10-07T01:36:51.890Z,4.10
2022-10-07T01:41:54.512Z,4.72
2022-10-07T01:46:55.415Z,4.30
2022-10-07T01:52:12.263Z,4.40
2022-10-07T01:57:26.829Z,4.57
2022-10-07T02:02:40.869Z,4.00
2022-10-07T02:07:53.636Z,3.85
2022-10-07T02:13:00.925Z,3.78
2022-10-07T02:18:09.380Z,4.15
2022-10-07T02:23:13.379Z,4.35
2022-10-07T02:28:18.490Z,5.32
2022-10-07T02:33:21.506Z,4.82
2022-10-07T02:38:23.644Z,3.80
2022-10-07T02:43:31.073Z,4.25
2022-10-07T02:48:36.307Z,3.92
2022-10-07T02:53:41.685Z,4.40
2022-10-07T02:58:46.459Z,4.10
2022-10-07T03:03:49.643Z,4.28
2022-10-07T03:08:51.838Z,4.25
2022-10-07T03:13:54.260Z,4.53
2022-10-07T03:18:55.427Z,4.60
2022-10-07T03:24:05.655Z,4.45
2022-10-07T03:29:15.060Z,4.50
2022-10-07T03:34:16.421Z,4.22
2022-10-07T03:39:21.109Z,4.70
2022-10-07T03:44:23.704Z,4.90
2022-10-07T03:49:25.994Z,5.07
2022-10-07T03:54:27.216Z,3.85
2022-10-07T03:59:30.225Z,4.30
2022-10-07T04:04:31.087Z,4.97
2022-10-07T04:09:32.394Z,4.45
2022-10-07T04:14:35.830Z,4.75
2022-10-07T04:19:37.191Z,4.68
2022-10-07T04:24:38.379Z,4.85
2022-10-07T04:29:40.589Z,3.70
2022-10-07T04:34:41.773Z,4.68
2022-10-07T04:39:59.687Z,5.80
2022-10-07T04:45:03.889Z,4.53
2022-10-07T04:50:07.935Z,5.18
2022-10-07T04:55:09.689Z,5.30
2022-10-07T05:00:13.285Z,4.78
2022-10-07T05:05:14.886Z,4.85
2022-10-07T05:10:15.933Z,5.32
2022-10-07T05:15:18.177Z,5.13
2022-10-07T05:20:19.197Z,5.40
2022-10-07T05:25:21.708Z,5.25
2022-10-07T05:30:23.953Z,5.88
2022-10-07T05:35:24.925Z,5.97
2022-10-07T05:40:25.789Z,4.93
2022-10-07T05:45:28.201Z,5.05
2022-10-07T05:50:29.458Z,5.55
2022-10-07T05:55:30.381Z,5.18
2022-10-07T06:00:35.313Z,5.50
2022-10-07T06:05:36.614Z,5.45
2022-10-07T06:10:54.957Z,5.45
2022-10-07T06:16:01.910Z,4.82
2022-10-07T06:21:03.606Z,6.03
2022-10-07T06:26:07.274Z,5.90
2022-10-07T06:31:12.059Z,6.38
2022-10-07T06:36:14.914Z,6.35
2022-10-07T06:41:18.787Z,5.82
2022-10-07T06:46:23.858Z,5.53
2022-10-07T06:51:25.904Z,6.18
2022-10-07T06:56:29.578Z,5.72
2022-10-07T07:01:33.157Z,6.20
2022-10-07T07:06:36.857Z,5.85
2022-10-07T07:11:41.718Z,6.07
2022-10-07T07:16:49.844Z,6.75
2022-10-07T07:21:51.771Z,6.40
2022-10-07T07:26:55.574Z,5.75
2022-10-07T07:32:00.911Z,6.20
2022-10-07T07:37:04.087Z,5.90
2022-10-07T07:42:11.733Z,5.00
2022-10-07T07:47:16.359Z,6.47
2022-10-07T07:52:17.934Z,5.57
2022-10-07T07:57:21.404Z,5.47
2022-10-07T08:02:23.990Z,4.88
2022-10-07T08:07:26.893Z,4.68
2022-10-07T08:12:27.904Z,4.45
2022-10-07T08:17:30.953Z,3.58
2022-10-07T08:22:31.828Z,3.65
2022-10-07T08:27:33.600Z,3.53
2022-10-07T08:32:35.936Z,3.13
2022-10-07T08:37:36.744Z,3.45
2022-10-07T08:42:40.656Z,4.00
2022-10-07T08:47:45.510Z,3.80
2022-10-07T08:52:52.305Z,3.28
2022-10-07T08:58:16.221Z,3.55
2022-10-07T09:03:32.076Z,3.20
2022-10-07T09:08:38.544Z,3.15
2022-10-07T09:13:42.889Z,3.63
2022-10-07T09:18:53.918Z,3.00
2022-10-07T09:23:57.933Z,3.75
2022-10-07T09:28:59.953Z,3.63
2022-10-07T09:34:02.653Z,3.92
2022-10-07T09:39:17.582Z,3.85
2022-10-07T09:44:27.608Z,3.92
2022-10-07T09:49:38.252Z,3.28
2022-10-07T09:54:39.095Z,3.42
2022-10-07T09:59:40.256Z,2.95
2022-10-07T10:04:50.344Z,2.95
2022-10-07T10:09:54.071Z,2.88
2022-10-07T10:14:58.997Z,3.33
2022-10-07T10:20:29.086Z,2.72
2022-10-07T10:25:58.474Z,2.40
2022-10-07T10:31:08.706Z,2.60
2022-10-07T10:36:17.272Z,2.85
2022-10-07T10:41:30.387Z,2.20
2022-10-07T10:46:47.372Z,2.38
2022-10-07T10:52:13.586Z,2.17
2022-10-07T10:57:21.063Z,1.80
2022-10-07T11:02:40.621Z,2.10
2022-10-07T11:07:47.846Z,1.85
2022-10-07T11:12:54.662Z,1.60
2022-10-07T11:18:01.567Z,2.00
2022-10-07T11:23:10.824Z,1.92
2022-10-07T11:28:18.233Z,2.17
2022-10-07T11:33:24.011Z,2.05
2022-10-07T11:38:33.381Z,2.13
2022-10-07T11:43:41.335Z,1.90
2022-10-07T11:48:46.074Z,2.28
2022-10-07T11:53:48.593Z,1.95
2022-10-07T11:58:59.287Z,1.73
2022-10-07T12:04:25.493Z,1.83
2022-10-07T12:09:55.217Z,2.10
2022-10-07T12:15:00.908Z,1.92
2022-10-07T12:20:37.757Z,1.50
2022-10-07T12:25:44.903Z,1.83
2022-10-07T12:30:52.559Z,1.90
2022-10-07T12:35:54.753Z,1.88
2022-10-07T12:41:23.141Z,2.22
2022-10-07T12:46:26.950Z,1.98
2022-10-07T12:51:31.560Z,1.80
2022-10-07T12:56:33.871Z,2.08
2022-10-07T13:01:50.179Z,1.83
2022-10-07T13:07:21.279Z,2.15
2022-10-07T13:12:38.679Z,1.83
2022-10-07T13:17:48.275Z,1.70
2022-10-07T13:22:50.663Z,2.05
2022-10-07T13:27:55.817Z,2.08
2022-10-07T13:32:56.615Z,2.00
2022-10-07T13:37:57.658Z,2.53
2022-10-07T13:43:02.057Z,1.70
2022-10-07T13:48:02.936Z,1.67
2022-10-07T13:53:03.725Z,1.60
2022-10-07T13:58:07.273Z,1.83
2022-10-07T14:03:14.770Z,1.65
2022-10-07T14:08:21.333Z,1.98
2022-10-07T14:13:23.895Z,1.50
2022-10-07T14:18:27.638Z,1.45
2022-10-07T14:23:32.788Z,1.85
2022-10-07T14:28:36.301Z,1.48
2022-10-07T14:34:06.183Z,1.50
2022-10-07T14:39:23.507Z,1.85
2022-10-07T14:44:26.223Z,1.38
2022-10-07T14:49:28.329Z,1.40
2022-10-07T14:54:29.221Z,1.55
2022-10-07T14:59:31.377Z,1.42
2022-10-07T15:04:32.616Z,2.22
2022-10-07T15:09:33.521Z,1.45
2022-10-07T15:14:35.668Z,1.65
2022-10-07T15:19:36.801Z,1.90
2022-10-07T15:24:37.647Z,1.40
2022-10-07T15:29:40.049Z,1.58
2022-10-07T15:34:40.826Z,1.60
2022-10-07T15:39:41.617Z,1.70
2022-10-07T15:44:44.566Z,1.60
2022-10-07T15:49:45.553Z,1.13
2022-10-07T15:54:46.680Z,1.70
2022-10-07T15:59:48.916Z,1.77
2022-10-07T16:04:49.730Z,1.65
2022-10-07T16:09:50.573Z,1.83
2022-10-07T16:14:53.047Z,1.90
2022-10-07T16:19:53.883Z,1.80
2022-10-07T16:24:55.600Z,1.40
2022-10-07T16:30:15.404Z,1.42
2022-10-07T16:35:16.368Z,1.92
2022-10-07T16:40:17.172Z,2.13
2022-10-07T16:45:19.383Z,1.80
2022-10-07T16:50:20.989Z,2.42
2022-10-07T16:55:21.848Z,2.20
2022-10-07T17:00:24.124Z,2.70
2022-10-07T17:05:24.904Z,2.95
2022-10-07T17:10:25.871Z,3.10
2022-10-07T17:15:28.152Z,2.97
2022-10-07T17:20:29.142Z,3.10
2022-10-07T17:25:29.946Z,3.08
2022-10-07T17:30:33.517Z,2.90
2022-10-07T17:35:34.740Z,3.50
2022-10-07T17:40:37.473Z,3.30
2022-10-07T17:45:41.835Z,4.38
2022-10-07T17:50:42.846Z,4.50
2022-10-07T17:55:51.607Z,5.53
2022-10-07T18:00:53.830Z,4.97
2022-10-07T18:05:55.035Z,5.72
2022-10-07T18:10:55.934Z,5.40
2022-10-07T18:16:02.419Z,5.55
2022-10-07T18:21:05.437Z,6.10
2022-10-07T18:26:07.118Z,6.40
2022-10-07T18:31:12.012Z,6.25
2022-10-07T18:36:15.178Z,7.60
2022-10-07T18:41:18.262Z,7.18
2022-10-07T18:46:20.564Z,8.38
2022-10-07T18:51:21.353Z,8.43
2022-10-07T18:56:24.265Z,8.65
2022-10-07T19:01:30.306Z,8.18
2022-10-07T19:06:33.376Z,10.15
2022-10-07T19:11:34.683Z,9.38
2022-10-07T19:16:38.636Z,10.65
2022-10-07T19:21:40.422Z,9.98
2022-10-07T19:26:43.365Z,9.98
2022-10-07T19:31:48.732Z,10.13
2022-10-07T19:36:50.919Z,9.05
2022-10-07T19:41:51.733Z,10.43
2022-10-07T19:46:54.349Z,11.20
2022-10-07T19:51:55.183Z,10.65
2022-10-07T19:56:56.158Z,11.05
2022-10-07T20:02:01.063Z,11.57
2022-10-07T20:07:02.230Z,11.52
2022-10-07T20:12:04.654Z,12.52
2022-10-07T20:17:07.490Z,11.77
2022-10-07T20:22:08.551Z,11.35
2022-10-07T20:27:09.421Z,13.52
2022-10-07T20:32:11.686Z,11.77
2022-10-07T20:37:12.532Z,12.20
2022-10-07T20:42:24.329Z,12.60
2022-10-07T20:47:29.943Z,12.23
2022-10-07T20:52:32.876Z,11.45
2022-10-07T20:57:37.905Z,11.82
2022-10-07T21:02:40.134Z,13.48
2022-10-07T21:07:41.079Z,12.32
2022-10-07T21:12:41.868Z,13.35
2022-10-07T21:17:45.939Z,12.98
2022-10-07T21:22:48.577Z,11.65
2022-10-07T21:27:49.720Z,13.18
2022-10-07T21:32:51.828Z,13.88
2022-10-07T21:37:52.648Z,13.98
2022-10-07T21:42:53.455Z,13.73
2022-10-07T21:47:55.656Z,12.75
2022-10-07T21:52:56.572Z,12.68
2022-10-07T21:57:57.572Z,13.80
2022-10-07T22:02:59.779Z,12.80
2022-10-07T22:08:17.917Z,13.10
2022-10-07T22:13:18.678Z,13.30
2022-10-07T22:18:20.842Z,13.15
2022-10-07T22:23:21.626Z,13.68
2022-10-07T22:28:22.513Z,14.38
2022-10-07T22:33:24.694Z,13.65
2022-10-07T22:38:25.474Z,13.02
2022-10-07T22:43:26.276Z,12.93
2022-10-07T22:48:31.000Z,13.75
2022-10-07T22:53:31.758Z,13.80
2022-10-07T22:58:32.577Z,14.15
2022-10-07T23:03:36.186Z,15.00
2022-10-07T23:08:37.381Z,13.70
2022-10-07T23:13:38.257Z,14.35
2022-10-07T23:18:43.186Z,15.15
2022-10-07T23:23:46.924Z,14.20
2022-10-07T23:28:49.350Z,14.90
2022-10-07T23:33:52.795Z,14.65
2022-10-07T23:38:54.208Z,14.75
2022-10-07T23:43:57.212Z,15.32
2022-10-07T23:48:59.956Z,15.65
2022-10-07T23:54:02.069Z,16.60
2022-10-07T23:59:03.923Z,16.15
